Meteo Giornale » Osservazioni meteo Italia » Gioia Del Colle

ore: 16:55 - Osservazioni Meteo Gioia Del Colle
Lat. 40° 46' N Lon. 16° 56' E Alt. 345 metri s.l.m.

sereno Europe/Rome

6 °C

Sereno

Temp. 24 Ore

2 °C

10 °C

Sud

11.1 Km/h

Dew point 0 °C

Umidità 65 %

Visibilità  10 Km

Il sole sorge alle ore 07:05

Il sole tramonta alle ore 16:26

Data e Ora Cielo e Fenomeni T °C DP °C Um. % Pres. hPa Vis. km Vento km/h
Oggi h: 16:55 sereno Sereno 6 0 65 1018 10 S 11.1
Oggi h: 15:55 sereno Sereno 8 -2 49 1018 10 S 7.4
Oggi h: 14:55 nuvoloso Nuvoloso 10 -3 39 1018 10 S 7.4
Oggi h: 13:55 nuvoloso Nuvoloso 9 -1 49 1018 10 S/SO 9.3
Oggi h: 12:55 poco_nuvoloso Poco Nuvoloso 9 -0 53 1019 10 N 5.5
Oggi h: 11:55 nuvoloso Nuvoloso 9 0 53 1019 10 N 3.7
Oggi h: 10:55 nuvoloso Nuvoloso 9 2 61 1019 10 N 3.7
Oggi h: 09:55 sereno Sereno 7 2 70 1019 10 N 3.7
Oggi h: 08:55 sereno Sereno 4 1 80 1019 10 N 1.8
Oggi h: 06:55 sereno Sereno 2 2 100 1018 10 N 7.4
Oggi h: 05:55 sereno Sereno 3 3 100 1018 10 N/NO 7.4
Oggi h: 04:55 sereno Sereno 3 2 93 1018 10 N 1.8
Oggi h: 03:55 sereno Sereno 4 3 93 1018 10 N 7.4
Oggi h: 02:55 sereno Sereno 4 3 93 1018 10 N 3.7
Oggi h: 01:55 sereno Sereno 4 3 93 1018 10 NO 13
Ieri h: 23:55 sereno Sereno 4 3 93 1018 10 N 13
Ieri h: 22:55 poco_nuvoloso Poco Nuvoloso 4 3 93 1018 10 O/NO 14.8
Ieri h: 21:55 sereno Sereno 4 3 93 1018 10 O/NO 7.4
Ieri h: 20:55 sereno Sereno 4 3 93 1017 10 N/NO 11.1
Ieri h: 19:55 sereno Sereno 5 4 93 1017 10 N 3.7
Ieri h: 18:55 sereno Sereno 7 3 75 1017 10 N/NO 7.4
Ieri h: 17:55 sereno Sereno 7 4 81 1016 10 N 11.1